sensor_id;sensor_type;location;lat;lon;timestamp;temperature;humidity
46041;DHT22;31779;49.124;19.190;2022-09-29T00:00:33;10.20;99.90
46041;DHT22;31779;49.124;19.190;2022-09-29T00:03:01;10.30;99.90
46041;DHT22;31779;49.124;19.190;2022-09-29T00:05:29;10.20;99.90
46041;DHT22;31779;49.124;19.190;2022-09-29T00:07:57;10.30;99.90
46041;DHT22;31779;49.124;19.190;2022-09-29T00:10:24;10.30;99.90
46041;DHT22;31779;49.124;19.190;2022-09-29T00:12:52;10.30;99.90
46041;DHT22;31779;49.124;19.190;2022-09-29T00:15:20;10.40;99.90
46041;DHT22;31779;49.124;19.190;2022-09-29T00:17:47;10.40;99.90
46041;DHT22;31779;49.124;19.190;2022-09-29T00:20:35;10.50;99.90
46041;DHT22;31779;49.124;19.190;2022-09-29T00:23:03;10.40;99.90
46041;DHT22;31779;49.124;19.190;2022-09-29T00:25:31;10.30;99.90
46041;DHT22;31779;49.124;19.190;2022-09-29T00:27:59;10.40;99.90
46041;DHT22;31779;49.124;19.190;2022-09-29T00:30:26;10.30;99.90
46041;DHT22;31779;49.124;19.190;2022-09-29T00:32:54;10.30;99.90
46041;DHT22;31779;49.124;19.190;2022-09-29T00:35:22;10.30;99.90
46041;DHT22;31779;49.124;19.190;2022-09-29T00:37:49;10.40;99.90
46041;DHT22;31779;49.124;19.190;2022-09-29T00:40:17;10.40;99.90
46041;DHT22;31779;49.124;19.190;2022-09-29T00:42:45;10.40;99.90
46041;DHT22;31779;49.124;19.190;2022-09-29T00:45:16;10.50;99.90
46041;DHT22;31779;49.124;19.190;2022-09-29T00:47:46;10.50;99.90
46041;DHT22;31779;49.124;19.190;2022-09-29T00:52:43;10.20;99.90
46041;DHT22;31779;49.124;19.190;2022-09-29T00:55:14;10.20;99.90
46041;DHT22;31779;49.124;19.190;2022-09-29T00:57:47;10.30;99.90
46041;DHT22;31779;49.124;19.190;2022-09-29T01:00:16;10.30;99.90
46041;DHT22;31779;49.124;19.190;2022-09-29T01:03:18;10.30;99.90
46041;DHT22;31779;49.124;19.190;2022-09-29T01:05:43;10.30;99.90
46041;DHT22;31779;49.124;19.190;2022-09-29T01:08:58;10.20;99.90
46041;DHT22;31779;49.124;19.190;2022-09-29T01:11:04;10.40;99.90
46041;DHT22;31779;49.124;19.190;2022-09-29T01:13:32;10.40;99.90
46041;DHT22;31779;49.124;19.190;2022-09-29T01:16:01;10.50;99.90
46041;DHT22;31779;49.124;19.190;2022-09-29T01:18:30;10.50;99.90
46041;DHT22;31779;49.124;19.190;2022-09-29T01:26:06;10.50;99.90
46041;DHT22;31779;49.124;19.190;2022-09-29T01:31:13;10.50;99.90
46041;DHT22;31779;49.124;19.190;2022-09-29T01:33:52;10.50;99.90
46041;DHT22;31779;49.124;19.190;2022-09-29T01:36:38;10.40;99.90
46041;DHT22;31779;49.124;19.190;2022-09-29T01:42:02;10.50;99.90
46041;DHT22;31779;49.124;19.190;2022-09-29T01:44:42;10.40;99.90
46041;DHT22;31779;49.124;19.190;2022-09-29T01:47:15;10.30;99.90
46041;DHT22;31779;49.124;19.190;2022-09-29T01:49:49;10.40;99.90
46041;DHT22;31779;49.124;19.190;2022-09-29T01:52:21;10.40;99.90
46041;DHT22;31779;49.124;19.190;2022-09-29T01:54:54;10.30;99.90
46041;DHT22;31779;49.124;19.190;2022-09-29T01:57:31;10.30;99.90
46041;DHT22;31779;49.124;19.190;2022-09-29T02:00:03;10.30;99.90
46041;DHT22;31779;49.124;19.190;2022-09-29T02:02:45;10.40;99.90
46041;DHT22;31779;49.124;19.190;2022-09-29T02:05:49;10.40;99.90
46041;DHT22;31779;49.124;19.190;2022-09-29T02:08:24;10.50;99.90
46041;DHT22;31779;49.124;19.190;2022-09-29T02:10:58;10.30;99.90
46041;DHT22;31779;49.124;19.190;2022-09-29T02:13:29;10.30;99.90
46041;DHT22;31779;49.124;19.190;2022-09-29T02:15:58;10.30;99.90
46041;DHT22;31779;49.124;19.190;2022-09-29T02:18:27;10.30;99.90
46041;DHT22;31779;49.124;19.190;2022-09-29T02:20:56;10.30;99.90
46041;DHT22;31779;49.124;19.190;2022-09-29T02:23:23;10.40;99.90
46041;DHT22;31779;49.124;19.190;2022-09-29T02:25:51;10.50;99.90
46041;DHT22;31779;49.124;19.190;2022-09-29T02:28:22;10.40;99.90
46041;DHT22;31779;49.124;19.190;2022-09-29T02:30:49;10.10;99.90
46041;DHT22;31779;49.124;19.190;2022-09-29T02:33:21;10.20;99.90
46041;DHT22;31779;49.124;19.190;2022-09-29T02:41:09;10.10;99.90
46041;DHT22;31779;49.124;19.190;2022-09-29T02:43:48;10.10;99.90
46041;DHT22;31779;49.124;19.190;2022-09-29T02:46:33;10.20;99.90
46041;DHT22;31779;49.124;19.190;2022-09-29T02:49:05;10.10;99.90
46041;DHT22;31779;49.124;19.190;2022-09-29T02:51:43;9.90;99.90
46041;DHT22;31779;49.124;19.190;2022-09-29T02:59:29;9.60;99.90
46041;DHT22;31779;49.124;19.190;2022-09-29T03:02:01;9.50;99.90
46041;DHT22;31779;49.124;19.190;2022-09-29T03:04:29;9.80;99.90
46041;DHT22;31779;49.124;19.190;2022-09-29T03:06:56;9.90;99.90
46041;DHT22;31779;49.124;19.190;2022-09-29T03:09:24;9.90;99.90
46041;DHT22;31779;49.124;19.190;2022-09-29T03:11:52;9.70;99.90
46041;DHT22;31779;49.124;19.190;2022-09-29T03:14:19;9.70;99.90
46041;DHT22;31779;49.124;19.190;2022-09-29T03:16:47;9.70;99.90
46041;DHT22;31779;49.124;19.190;2022-09-29T03:19:14;9.60;99.90
46041;DHT22;31779;49.124;19.190;2022-09-29T03:21:42;9.60;99.90
46041;DHT22;31779;49.124;19.190;2022-09-29T03:24:09;9.70;99.90
46041;DHT22;31779;49.124;19.190;2022-09-29T03:26:37;9.80;99.90
46041;DHT22;31779;49.124;19.190;2022-09-29T03:29:05;9.70;99.90
46041;DHT22;31779;49.124;19.190;2022-09-29T03:31:32;9.80;99.90
46041;DHT22;31779;49.124;19.190;2022-09-29T03:34:00;9.90;99.90
46041;DHT22;31779;49.124;19.190;2022-09-29T03:36:27;9.60;99.90
46041;DHT22;31779;49.124;19.190;2022-09-29T03:38:55;9.50;99.90
46041;DHT22;31779;49.124;19.190;2022-09-29T03:41:23;9.50;99.90
46041;DHT22;31779;49.124;19.190;2022-09-29T03:43:50;9.50;99.90
46041;DHT22;31779;49.124;19.190;2022-09-29T03:46:19;9.30;99.90
46041;DHT22;31779;49.124;19.190;2022-09-29T03:48:46;9.30;99.90
46041;DHT22;31779;49.124;19.190;2022-09-29T03:51:14;9.30;99.90
46041;DHT22;31779;49.124;19.190;2022-09-29T03:53:42;9.50;99.90
46041;DHT22;31779;49.124;19.190;2022-09-29T03:56:09;9.50;99.90
46041;DHT22;31779;49.124;19.190;2022-09-29T03:58:37;9.50;99.90
46041;DHT22;31779;49.124;19.190;2022-09-29T04:01:04;9.50;99.90
46041;DHT22;31779;49.124;19.190;2022-09-29T04:03:33;9.50;99.90
46041;DHT22;31779;49.124;19.190;2022-09-29T04:06:01;9.40;99.90
46041;DHT22;31779;49.124;19.190;2022-09-29T04:08:28;9.40;99.90
46041;DHT22;31779;49.124;19.190;2022-09-29T04:10:56;9.50;99.90
46041;DHT22;31779;49.124;19.190;2022-09-29T04:13:23;9.50;99.90
46041;DHT22;31779;49.124;19.190;2022-09-29T04:15:51;9.50;99.90
46041;DHT22;31779;49.124;19.190;2022-09-29T04:18:19;9.40;99.90
46041;DHT22;31779;49.124;19.190;2022-09-29T04:20:46;9.50;99.90
46041;DHT22;31779;49.124;19.190;2022-09-29T04:23:14;9.50;99.90
46041;DHT22;31779;49.124;19.190;2022-09-29T04:25:45;9.40;99.90
46041;DHT22;31779;49.124;19.190;2022-09-29T04:28:13;9.40;99.90
46041;DHT22;31779;49.124;19.190;2022-09-29T04:30:40;9.30;99.90
46041;DHT22;31779;49.124;19.190;2022-09-29T04:33:08;9.40;99.90
46041;DHT22;31779;49.124;19.190;2022-09-29T04:35:36;9.40;99.90
46041;DHT22;31779;49.124;19.190;2022-09-29T04:38:04;9.40;99.90
46041;DHT22;31779;49.124;19.190;2022-09-29T04:40:32;9.40;99.90
46041;DHT22;31779;49.124;19.190;2022-09-29T04:43:00;9.40;99.90
46041;DHT22;31779;49.124;19.190;2022-09-29T04:45:28;9.50;99.90
46041;DHT22;31779;49.124;19.190;2022-09-29T04:47:56;9.50;99.90
46041;DHT22;31779;49.124;19.190;2022-09-29T04:50:23;9.50;99.90
46041;DHT22;31779;49.124;19.190;2022-09-29T04:52:51;9.40;99.90
46041;DHT22;31779;49.124;19.190;2022-09-29T04:55:18;9.20;99.90
46041;DHT22;31779;49.124;19.190;2022-09-29T04:57:46;9.10;99.90
46041;DHT22;31779;49.124;19.190;2022-09-29T05:00:15;9.10;99.90
46041;DHT22;31779;49.124;19.190;2022-09-29T05:02:42;9.20;99.90
46041;DHT22;31779;49.124;19.190;2022-09-29T05:05:15;9.30;99.90
46041;DHT22;31779;49.124;19.190;2022-09-29T05:07:43;9.30;99.90
46041;DHT22;31779;49.124;19.190;2022-09-29T05:10:12;9.40;99.90
46041;DHT22;31779;49.124;19.190;2022-09-29T05:12:39;9.40;99.90
46041;DHT22;31779;49.124;19.190;2022-09-29T05:15:07;9.20;99.90
46041;DHT22;31779;49.124;19.190;2022-09-29T05:17:35;9.00;99.90
46041;DHT22;31779;49.124;19.190;2022-09-29T05:20:02;9.10;99.90
46041;DHT22;31779;49.124;19.190;2022-09-29T05:22:30;9.20;99.90
46041;DHT22;31779;49.124;19.190;2022-09-29T05:24:58;9.10;99.90
46041;DHT22;31779;49.124;19.190;2022-09-29T05:27:26;9.10;99.90
46041;DHT22;31779;49.124;19.190;2022-09-29T05:29:53;9.00;99.90
46041;DHT22;31779;49.124;19.190;2022-09-29T05:32:20;9.00;99.90
46041;DHT22;31779;49.124;19.190;2022-09-29T05:34:48;9.10;99.90
46041;DHT22;31779;49.124;19.190;2022-09-29T05:37:16;9.20;99.90
46041;DHT22;31779;49.124;19.190;2022-09-29T05:39:44;9.30;99.90
46041;DHT22;31779;49.124;19.190;2022-09-29T05:42:13;9.20;99.90
46041;DHT22;31779;49.124;19.190;2022-09-29T05:44:41;9.30;99.90
46041;DHT22;31779;49.124;19.190;2022-09-29T05:47:08;9.40;99.90
46041;DHT22;31779;49.124;19.190;2022-09-29T05:49:36;9.20;99.90
46041;DHT22;31779;49.124;19.190;2022-09-29T05:52:03;9.30;99.90
46041;DHT22;31779;49.124;19.190;2022-09-29T05:54:31;9.20;99.90
46041;DHT22;31779;49.124;19.190;2022-09-29T05:56:58;9.30;99.90
46041;DHT22;31779;49.124;19.190;2022-09-29T05:59:26;9.30;99.90
46041;DHT22;31779;49.124;19.190;2022-09-29T06:01:54;9.30;99.90
46041;DHT22;31779;49.124;19.190;2022-09-29T06:04:22;9.40;99.90
46041;DHT22;31779;49.124;19.190;2022-09-29T06:06:49;9.50;99.90
46041;DHT22;31779;49.124;19.190;2022-09-29T06:09:17;9.50;99.90
46041;DHT22;31779;49.124;19.190;2022-09-29T06:11:45;9.40;99.90
46041;DHT22;31779;49.124;19.190;2022-09-29T06:14:12;9.40;99.90
46041;DHT22;31779;49.124;19.190;2022-09-29T06:16:40;9.30;99.90
46041;DHT22;31779;49.124;19.190;2022-09-29T06:19:08;9.40;99.90
46041;DHT22;31779;49.124;19.190;2022-09-29T06:21:35;9.50;99.90
46041;DHT22;31779;49.124;19.190;2022-09-29T06:24:04;9.60;99.90
46041;DHT22;31779;49.124;19.190;2022-09-29T06:26:33;9.60;99.90
46041;DHT22;31779;49.124;19.190;2022-09-29T06:29:01;9.40;99.90
46041;DHT22;31779;49.124;19.190;2022-09-29T06:31:30;9.50;99.90
46041;DHT22;31779;49.124;19.190;2022-09-29T06:33:59;9.30;99.90
46041;DHT22;31779;49.124;19.190;2022-09-29T06:36:32;9.20;99.90
46041;DHT22;31779;49.124;19.190;2022-09-29T06:39:19;9.20;99.90
46041;DHT22;31779;49.124;19.190;2022-09-29T06:41:47;9.30;99.90
46041;DHT22;31779;49.124;19.190;2022-09-29T06:44:18;9.20;99.90
46041;DHT22;31779;49.124;19.190;2022-09-29T06:46:46;9.30;99.90
46041;DHT22;31779;49.124;19.190;2022-09-29T06:49:15;9.20;99.90
46041;DHT22;31779;49.124;19.190;2022-09-29T06:51:43;9.30;99.90
46041;DHT22;31779;49.124;19.190;2022-09-29T06:54:13;9.50;99.90
46041;DHT22;31779;49.124;19.190;2022-09-29T06:56:42;9.60;99.90
46041;DHT22;31779;49.124;19.190;2022-09-29T06:59:12;9.70;99.90
46041;DHT22;31779;49.124;19.190;2022-09-29T07:01:40;9.70;99.90
46041;DHT22;31779;49.124;19.190;2022-09-29T07:04:08;9.70;99.90
46041;DHT22;31779;49.124;19.190;2022-09-29T07:06:35;9.70;99.90
46041;DHT22;31779;49.124;19.190;2022-09-29T07:09:04;9.80;99.90
46041;DHT22;31779;49.124;19.190;2022-09-29T07:11:32;9.90;99.90
46041;DHT22;31779;49.124;19.190;2022-09-29T07:14:00;9.90;99.90
46041;DHT22;31779;49.124;19.190;2022-09-29T07:16:27;9.80;99.90
46041;DHT22;31779;49.124;19.190;2022-09-29T07:18:55;9.80;99.90
46041;DHT22;31779;49.124;19.190;2022-09-29T07:21:23;9.90;99.90
46041;DHT22;31779;49.124;19.190;2022-09-29T07:23:51;9.80;99.90
46041;DHT22;31779;49.124;19.190;2022-09-29T07:26:19;9.90;99.90
46041;DHT22;31779;49.124;19.190;2022-09-29T07:28:47;10.00;99.90
46041;DHT22;31779;49.124;19.190;2022-09-29T07:31:17;10.00;99.90
46041;DHT22;31779;49.124;19.190;2022-09-29T07:33:46;9.90;99.90
46041;DHT22;31779;49.124;19.190;2022-09-29T07:36:15;9.90;99.90
46041;DHT22;31779;49.124;19.190;2022-09-29T07:38:47;10.10;99.90
46041;DHT22;31779;49.124;19.190;2022-09-29T07:41:15;10.10;99.90
46041;DHT22;31779;49.124;19.190;2022-09-29T07:43:42;10.00;99.90
46041;DHT22;31779;49.124;19.190;2022-09-29T07:46:12;9.90;99.90
46041;DHT22;31779;49.124;19.190;2022-09-29T07:48:40;9.90;99.90
46041;DHT22;31779;49.124;19.190;2022-09-29T07:51:11;10.00;99.90
46041;DHT22;31779;49.124;19.190;2022-09-29T07:53:39;10.00;99.90
46041;DHT22;31779;49.124;19.190;2022-09-29T07:56:08;10.10;99.90
46041;DHT22;31779;49.124;19.190;2022-09-29T07:58:36;10.10;99.90
46041;DHT22;31779;49.124;19.190;2022-09-29T08:01:05;10.10;99.90
46041;DHT22;31779;49.124;19.190;2022-09-29T08:03:38;10.00;99.90
46041;DHT22;31779;49.124;19.190;2022-09-29T08:06:06;10.20;99.90
46041;DHT22;31779;49.124;19.190;2022-09-29T08:08:35;10.30;99.90
46041;DHT22;31779;49.124;19.190;2022-09-29T08:11:13;10.50;99.90
46041;DHT22;31779;49.124;19.190;2022-09-29T08:13:58;10.50;99.90
46041;DHT22;31779;49.124;19.190;2022-09-29T08:16:26;10.80;99.90
46041;DHT22;31779;49.124;19.190;2022-09-29T08:18:54;10.80;99.90
46041;DHT22;31779;49.124;19.190;2022-09-29T08:21:21;10.60;99.90
46041;DHT22;31779;49.124;19.190;2022-09-29T08:23:49;10.80;99.90
46041;DHT22;31779;49.124;19.190;2022-09-29T08:26:17;11.00;99.90
46041;DHT22;31779;49.124;19.190;2022-09-29T08:28:59;11.10;99.90
46041;DHT22;31779;49.124;19.190;2022-09-29T08:31:34;11.30;99.90
46041;DHT22;31779;49.124;19.190;2022-09-29T08:34:05;11.60;99.90
46041;DHT22;31779;49.124;19.190;2022-09-29T08:36:33;12.00;99.90
46041;DHT22;31779;49.124;19.190;2022-09-29T08:39:00;12.20;99.90
46041;DHT22;31779;49.124;19.190;2022-09-29T08:44:13;13.00;99.90
46041;DHT22;31779;49.124;19.190;2022-09-29T08:49:56;13.30;99.90
46041;DHT22;31779;49.124;19.190;2022-09-29T08:52:28;13.50;99.90
46041;DHT22;31779;49.124;19.190;2022-09-29T08:57:56;15.80;99.90
46041;DHT22;31779;49.124;19.190;2022-09-29T09:25:00;15.60;99.90
46041;DHT22;31779;49.124;19.190;2022-09-29T09:27:35;15.30;99.90
46041;DHT22;31779;49.124;19.190;2022-09-29T09:30:05;15.60;99.90
46041;DHT22;31779;49.124;19.190;2022-09-29T09:32:34;15.20;99.90
46041;DHT22;31779;49.124;19.190;2022-09-29T09:35:15;15.60;99.90
46041;DHT22;31779;49.124;19.190;2022-09-29T09:37:50;14.90;99.90
46041;DHT22;31779;49.124;19.190;2022-09-29T09:40:22;14.70;99.90
46041;DHT22;31779;49.124;19.190;2022-09-29T09:42:59;14.80;99.90
46041;DHT22;31779;49.124;19.190;2022-09-29T09:48:13;14.20;99.90
46041;DHT22;31779;49.124;19.190;2022-09-29T09:50:49;14.00;99.90
46041;DHT22;31779;49.124;19.190;2022-09-29T09:53:18;13.90;99.90
46041;DHT22;31779;49.124;19.190;2022-09-29T09:55:50;14.10;99.90
46041;DHT22;31779;49.124;19.190;2022-09-29T10:01:00;13.70;99.90
46041;DHT22;31779;49.124;19.190;2022-09-29T10:03:28;14.00;99.90
46041;DHT22;31779;49.124;19.190;2022-09-29T10:05:56;13.90;99.90
46041;DHT22;31779;49.124;19.190;2022-09-29T10:08:24;14.20;99.90
46041;DHT22;31779;49.124;19.190;2022-09-29T10:10:52;13.50;99.90
46041;DHT22;31779;49.124;19.190;2022-09-29T10:13:27;13.80;99.90
46041;DHT22;31779;49.124;19.190;2022-09-29T10:23:52;13.80;99.90
46041;DHT22;31779;49.124;19.190;2022-09-29T10:27:03;14.00;99.90
46041;DHT22;31779;49.124;19.190;2022-09-29T10:32:04;13.30;99.90
46041;DHT22;31779;49.124;19.190;2022-09-29T10:34:34;12.80;99.90
46041;DHT22;31779;49.124;19.190;2022-09-29T10:37:04;12.80;99.90
46041;DHT22;31779;49.124;19.190;2022-09-29T10:41:59;12.20;99.90
46041;DHT22;31779;49.124;19.190;2022-09-29T10:44:29;12.40;99.90
46041;DHT22;31779;49.124;19.190;2022-09-29T10:46:57;12.00;99.90
46041;DHT22;31779;49.124;19.190;2022-09-29T10:49:26;12.40;99.90
46041;DHT22;31779;49.124;19.190;2022-09-29T10:54:23;12.90;99.90
46041;DHT22;31779;49.124;19.190;2022-09-29T10:56:52;12.50;99.90
46041;DHT22;31779;49.124;19.190;2022-09-29T10:59:21;12.50;99.90
46041;DHT22;31779;49.124;19.190;2022-09-29T11:01:51;12.70;99.90
46041;DHT22;31779;49.124;19.190;2022-09-29T11:04:24;12.80;99.90
46041;DHT22;31779;49.124;19.190;2022-09-29T11:06:52;12.70;99.90
46041;DHT22;31779;49.124;19.190;2022-09-29T11:14:26;12.90;99.90
46041;DHT22;31779;49.124;19.190;2022-09-29T11:16:55;12.90;99.90
46041;DHT22;31779;49.124;19.190;2022-09-29T11:19:23;13.20;99.90
46041;DHT22;31779;49.124;19.190;2022-09-29T11:29:21;13.60;99.90
46041;DHT22;31779;49.124;19.190;2022-09-29T11:34:28;13.60;99.90
46041;DHT22;31779;49.124;19.190;2022-09-29T11:45:14;14.20;99.90
46041;DHT22;31779;49.124;19.190;2022-09-29T11:58:14;14.90;99.90
46041;DHT22;31779;49.124;19.190;2022-09-29T12:00:54;18.30;99.90
46041;DHT22;31779;49.124;19.190;2022-09-29T12:03:27;20.70;98.70
46041;DHT22;31779;49.124;19.190;2022-09-29T12:08:48;21.50;83.10
46041;DHT22;31779;49.124;19.190;2022-09-29T12:14:27;20.30;86.90
46041;DHT22;31779;49.124;19.190;2022-09-29T12:16:57;19.10;90.20
46041;DHT22;31779;49.124;19.190;2022-09-29T12:19:26;19.10;92.60
46041;DHT22;31779;49.124;19.190;2022-09-29T12:21:57;19.10;91.80
46041;DHT22;31779;49.124;19.190;2022-09-29T12:27:20;18.30;95.00
46041;DHT22;31779;49.124;19.190;2022-09-29T12:29:52;17.20;97.70
46041;DHT22;31779;49.124;19.190;2022-09-29T12:32:26;16.60;99.90
46041;DHT22;31779;49.124;19.190;2022-09-29T12:40:21;15.00;99.90
46041;DHT22;31779;49.124;19.190;2022-09-29T12:53:21;14.30;99.90
46041;DHT22;31779;49.124;19.190;2022-09-29T13:01:22;14.30;99.90
46041;DHT22;31779;49.124;19.190;2022-09-29T13:27:35;14.70;99.90
46041;DHT22;31779;49.124;19.190;2022-09-29T13:30:05;15.40;99.90
46041;DHT22;31779;49.124;19.190;2022-09-29T13:32:40;15.50;99.90
46041;DHT22;31779;49.124;19.190;2022-09-29T13:35:16;15.80;99.90
46041;DHT22;31779;49.124;19.190;2022-09-29T13:40:33;14.70;99.90
46041;DHT22;31779;49.124;19.190;2022-09-29T13:43:02;14.50;99.90
46041;DHT22;31779;49.124;19.190;2022-09-29T13:45:35;14.70;99.90
46041;DHT22;31779;49.124;19.190;2022-09-29T13:48:32;14.40;99.90
46041;DHT22;31779;49.124;19.190;2022-09-29T13:51:14;14.10;99.90
46041;DHT22;31779;49.124;19.190;2022-09-29T13:53:52;13.90;99.90
46041;DHT22;31779;49.124;19.190;2022-09-29T13:56:35;13.70;99.90
46041;DHT22;31779;49.124;19.190;2022-09-29T13:59:03;13.60;99.90
46041;DHT22;31779;49.124;19.190;2022-09-29T14:01:39;13.40;99.90
46041;DHT22;31779;49.124;19.190;2022-09-29T14:06:54;13.40;99.90
46041;DHT22;31779;49.124;19.190;2022-09-29T14:09:24;13.20;99.90
46041;DHT22;31779;49.124;19.190;2022-09-29T14:12:00;13.20;99.90
46041;DHT22;31779;49.124;19.190;2022-09-29T14:14:29;13.00;99.90
46041;DHT22;31779;49.124;19.190;2022-09-29T14:19:33;12.80;99.90
46041;DHT22;31779;49.124;19.190;2022-09-29T14:22:04;12.80;99.90
46041;DHT22;31779;49.124;19.190;2022-09-29T14:29:42;12.80;99.90
46041;DHT22;31779;49.124;19.190;2022-09-29T14:32:16;12.70;99.90
46041;DHT22;31779;49.124;19.190;2022-09-29T14:34:45;12.70;99.90
46041;DHT22;31779;49.124;19.190;2022-09-29T14:37:15;12.60;99.90
46041;DHT22;31779;49.124;19.190;2022-09-29T14:39:45;12.60;99.90
46041;DHT22;31779;49.124;19.190;2022-09-29T14:42:33;12.50;99.90
46041;DHT22;31779;49.124;19.190;2022-09-29T14:45:02;11.90;99.90
46041;DHT22;31779;49.124;19.190;2022-09-29T14:50:50;12.00;99.90
46041;DHT22;31779;49.124;19.190;2022-09-29T14:53:45;12.10;99.90
46041;DHT22;31779;49.124;19.190;2022-09-29T14:56:20;12.40;99.90
46041;DHT22;31779;49.124;19.190;2022-09-29T15:01:26;12.50;99.90
46041;DHT22;31779;49.124;19.190;2022-09-29T15:04:10;12.70;99.90
46041;DHT22;31779;49.124;19.190;2022-09-29T15:06:49;12.80;99.90
46041;DHT22;31779;49.124;19.190;2022-09-29T15:09:18;12.80;99.90
46041;DHT22;31779;49.124;19.190;2022-09-29T15:11:55;12.90;99.90
46041;DHT22;31779;49.124;19.190;2022-09-29T15:14:30;12.60;99.90
46041;DHT22;31779;49.124;19.190;2022-09-29T15:17:11;12.70;99.90
46041;DHT22;31779;49.124;19.190;2022-09-29T15:22:16;12.60;99.90
46041;DHT22;31779;49.124;19.190;2022-09-29T15:27:37;12.70;99.90
46041;DHT22;31779;49.124;19.190;2022-09-29T15:30:12;12.60;99.90
46041;DHT22;31779;49.124;19.190;2022-09-29T15:32:40;12.30;99.90
46041;DHT22;31779;49.124;19.190;2022-09-29T15:35:10;12.10;99.90
46041;DHT22;31779;49.124;19.190;2022-09-29T15:40:17;11.80;99.90
46041;DHT22;31779;49.124;19.190;2022-09-29T15:42:45;11.60;99.90
46041;DHT22;31779;49.124;19.190;2022-09-29T15:45:18;11.40;99.90
46041;DHT22;31779;49.124;19.190;2022-09-29T15:47:57;11.30;99.90
46041;DHT22;31779;49.124;19.190;2022-09-29T15:50:26;11.20;99.90
46041;DHT22;31779;49.124;19.190;2022-09-29T15:52:54;11.20;99.90
46041;DHT22;31779;49.124;19.190;2022-09-29T15:55:22;11.20;99.90
46041;DHT22;31779;49.124;19.190;2022-09-29T15:57:52;11.10;99.90
46041;DHT22;31779;49.124;19.190;2022-09-29T16:02:56;10.90;99.90
46041;DHT22;31779;49.124;19.190;2022-09-29T16:05:29;10.90;99.90
46041;DHT22;31779;49.124;19.190;2022-09-29T16:08:03;10.90;99.90
46041;DHT22;31779;49.124;19.190;2022-09-29T16:10:53;11.10;99.90
46041;DHT22;31779;49.124;19.190;2022-09-29T16:13:22;11.00;99.90
46041;DHT22;31779;49.124;19.190;2022-09-29T16:16:10;11.10;99.90
46041;DHT22;31779;49.124;19.190;2022-09-29T16:18:42;11.00;99.90
46041;DHT22;31779;49.124;19.190;2022-09-29T16:21:11;10.80;99.90
46041;DHT22;31779;49.124;19.190;2022-09-29T16:23:41;10.60;99.90
46041;DHT22;31779;49.124;19.190;2022-09-29T16:26:10;10.50;99.90
46041;DHT22;31779;49.124;19.190;2022-09-29T16:31:28;10.40;99.90
46041;DHT22;31779;49.124;19.190;2022-09-29T16:33:57;10.40;99.90
46041;DHT22;31779;49.124;19.190;2022-09-29T16:36:31;10.40;99.90
46041;DHT22;31779;49.124;19.190;2022-09-29T16:39:00;10.40;99.90
46041;DHT22;31779;49.124;19.190;2022-09-29T16:46:44;10.50;99.90
46041;DHT22;31779;49.124;19.190;2022-09-29T16:51:44;10.50;99.90
46041;DHT22;31779;49.124;19.190;2022-09-29T16:54:18;10.40;99.90
46041;DHT22;31779;49.124;19.190;2022-09-29T16:56:47;10.40;99.90
46041;DHT22;31779;49.124;19.190;2022-09-29T16:59:16;10.40;99.90
46041;DHT22;31779;49.124;19.190;2022-09-29T17:01:44;10.30;99.90
46041;DHT22;31779;49.124;19.190;2022-09-29T17:04:15;10.30;99.90
46041;DHT22;31779;49.124;19.190;2022-09-29T17:06:46;10.20;99.90
46041;DHT22;31779;49.124;19.190;2022-09-29T17:09:16;10.30;99.90
46041;DHT22;31779;49.124;19.190;2022-09-29T17:11:46;10.30;99.90
46041;DHT22;31779;49.124;19.190;2022-09-29T17:14:16;10.20;99.90
46041;DHT22;31779;49.124;19.190;2022-09-29T17:16:44;10.20;99.90
46041;DHT22;31779;49.124;19.190;2022-09-29T17:19:12;10.30;99.90
46041;DHT22;31779;49.124;19.190;2022-09-29T17:21:40;10.40;99.90
46041;DHT22;31779;49.124;19.190;2022-09-29T17:24:07;10.40;99.90
46041;DHT22;31779;49.124;19.190;2022-09-29T17:26:37;10.40;99.90
46041;DHT22;31779;49.124;19.190;2022-09-29T17:29:24;10.40;99.90
46041;DHT22;31779;49.124;19.190;2022-09-29T17:31:52;10.40;99.90
46041;DHT22;31779;49.124;19.190;2022-09-29T17:34:19;10.40;99.90
46041;DHT22;31779;49.124;19.190;2022-09-29T17:36:56;10.20;99.90
46041;DHT22;31779;49.124;19.190;2022-09-29T17:39:24;10.20;99.90
46041;DHT22;31779;49.124;19.190;2022-09-29T17:41:52;10.40;99.90
46041;DHT22;31779;49.124;19.190;2022-09-29T17:44:21;10.40;99.90
46041;DHT22;31779;49.124;19.190;2022-09-29T17:46:48;10.20;99.90
46041;DHT22;31779;49.124;19.190;2022-09-29T17:49:24;10.30;99.90
46041;DHT22;31779;49.124;19.190;2022-09-29T17:51:52;10.30;99.90
46041;DHT22;31779;49.124;19.190;2022-09-29T17:54:21;10.20;99.90
46041;DHT22;31779;49.124;19.190;2022-09-29T17:56:53;10.20;99.90
46041;DHT22;31779;49.124;19.190;2022-09-29T17:59:27;10.20;99.90
46041;DHT22;31779;49.124;19.190;2022-09-29T18:01:55;10.10;99.90
46041;DHT22;31779;49.124;19.190;2022-09-29T18:04:23;10.20;99.90
46041;DHT22;31779;49.124;19.190;2022-09-29T18:06:55;10.20;99.90
46041;DHT22;31779;49.124;19.190;2022-09-29T18:09:23;10.20;99.90
46041;DHT22;31779;49.124;19.190;2022-09-29T18:11:51;10.20;99.90
46041;DHT22;31779;49.124;19.190;2022-09-29T18:14:19;10.10;99.90
46041;DHT22;31779;49.124;19.190;2022-09-29T18:16:48;10.20;99.90
46041;DHT22;31779;49.124;19.190;2022-09-29T18:19:16;10.10;99.90
46041;DHT22;31779;49.124;19.190;2022-09-29T18:21:44;10.10;99.90
46041;DHT22;31779;49.124;19.190;2022-09-29T18:24:12;10.10;99.90
46041;DHT22;31779;49.124;19.190;2022-09-29T18:26:40;10.10;99.90
46041;DHT22;31779;49.124;19.190;2022-09-29T18:29:16;10.10;99.90
46041;DHT22;31779;49.124;19.190;2022-09-29T18:31:45;10.10;99.90
46041;DHT22;31779;49.124;19.190;2022-09-29T18:34:14;10.10;99.90
46041;DHT22;31779;49.124;19.190;2022-09-29T18:36:42;10.10;99.90
46041;DHT22;31779;49.124;19.190;2022-09-29T18:39:13;9.90;99.90
46041;DHT22;31779;49.124;19.190;2022-09-29T18:41:41;9.90;99.90
46041;DHT22;31779;49.124;19.190;2022-09-29T18:44:13;10.00;99.90
46041;DHT22;31779;49.124;19.190;2022-09-29T18:46:41;10.10;99.90
46041;DHT22;31779;49.124;19.190;2022-09-29T18:49:10;10.10;99.90
46041;DHT22;31779;49.124;19.190;2022-09-29T18:51:41;10.10;99.90
46041;DHT22;31779;49.124;19.190;2022-09-29T18:54:09;10.10;99.90
46041;DHT22;31779;49.124;19.190;2022-09-29T18:56:39;10.10;99.90
46041;DHT22;31779;49.124;19.190;2022-09-29T18:59:09;10.10;99.90
46041;DHT22;31779;49.124;19.190;2022-09-29T19:01:38;10.10;99.90
46041;DHT22;31779;49.124;19.190;2022-09-29T19:04:07;10.10;99.90
46041;DHT22;31779;49.124;19.190;2022-09-29T19:06:35;10.00;99.90